createdAt,value
2023-03-06T00:00:50.527Z,13.40
2023-03-06T00:03:21.961Z,11.27
2023-03-06T00:05:51.444Z,12.05
2023-03-06T00:08:22.577Z,12.13
2023-03-06T00:10:52.085Z,12.20
2023-03-06T00:13:23.416Z,11.45
2023-03-06T00:15:52.527Z,12.93
2023-03-06T00:18:22.571Z,13.77
2023-03-06T00:20:52.035Z,10.98
2023-03-06T00:23:21.334Z,12.00
2023-03-06T00:25:51.147Z,11.77
2023-03-06T00:28:21.319Z,10.75
2023-03-06T00:30:51.052Z,10.10
2023-03-06T00:33:32.744Z,11.15
2023-03-06T00:36:08.896Z,10.65
2023-03-06T00:38:38.576Z,12.13
2023-03-06T00:41:10.144Z,12.73
2023-03-06T00:43:40.511Z,10.88
2023-03-06T00:46:10.611Z,12.40
2023-03-06T00:48:41.729Z,11.27
2023-03-06T00:51:13.922Z,11.60
2023-03-06T00:53:44.965Z,11.95
2023-03-06T00:56:17.061Z,12.07
2023-03-06T00:58:47.430Z,11.23
2023-03-06T01:01:17.430Z,12.70
2023-03-06T01:03:46.844Z,14.20
2023-03-06T01:06:16.441Z,13.52
2023-03-06T01:08:45.952Z,11.85
2023-03-06T01:11:15.531Z,13.15
2023-03-06T01:13:46.408Z,12.55
2023-03-06T01:16:19.507Z,12.82
2023-03-06T01:18:52.245Z,15.18
2023-03-06T01:21:21.849Z,14.68
2023-03-06T01:23:51.516Z,12.90
2023-03-06T01:26:20.868Z,10.45
2023-03-06T01:28:50.383Z,15.27
2023-03-06T01:31:20.475Z,12.32
2023-03-06T01:33:49.722Z,12.60
2023-03-06T01:36:20.330Z,12.18
2023-03-06T01:38:49.840Z,14.00
2023-03-06T01:41:22.645Z,11.85
2023-03-06T01:43:52.395Z,15.13
2023-03-06T01:46:43.182Z,12.13
2023-03-06T01:49:17.968Z,14.15
2023-03-06T01:51:55.691Z,11.55
2023-03-06T01:54:31.218Z,13.62
2023-03-06T01:57:07.148Z,14.32
2023-03-06T01:59:39.401Z,11.18
2023-03-06T02:02:12.000Z,9.52
2023-03-06T02:04:43.293Z,13.60
2023-03-06T02:07:14.552Z,10.80
2023-03-06T02:09:44.797Z,9.18
2023-03-06T02:12:19.590Z,10.32
2023-03-06T02:14:50.246Z,8.52
2023-03-06T02:17:22.196Z,9.32
2023-03-06T02:20:21.063Z,9.13
2023-03-06T02:23:06.491Z,7.72
2023-03-06T02:25:42.001Z,12.77
2023-03-06T02:28:15.347Z,11.95
2023-03-06T02:30:46.729Z,10.30
2023-03-06T02:33:19.360Z,10.95
2023-03-06T02:35:57.224Z,12.82
2023-03-06T02:38:33.042Z,13.35
2023-03-06T02:41:04.986Z,11.05
2023-03-06T02:43:38.557Z,9.45
2023-03-06T02:46:08.919Z,11.30
2023-03-06T02:48:39.108Z,8.55
2023-03-06T02:51:08.929Z,10.15
2023-03-06T02:53:38.701Z,10.60
2023-03-06T02:56:08.629Z,7.18
2023-03-06T02:58:39.839Z,8.32
2023-03-06T03:01:09.308Z,6.93
2023-03-06T03:03:40.221Z,9.05
2023-03-06T03:06:10.020Z,6.75
2023-03-06T03:08:40.060Z,15.25
2023-03-06T03:11:10.572Z,7.50
2023-03-06T03:13:40.737Z,7.80
2023-03-06T03:16:16.057Z,8.60
2023-03-06T03:18:50.573Z,11.38
2023-03-06T03:22:12.456Z,14.48
2023-03-06T03:24:47.604Z,11.57
2023-03-06T03:27:18.127Z,10.35
2023-03-06T03:29:48.161Z,10.65
2023-03-06T03:32:40.952Z,11.85
2023-03-06T03:35:14.878Z,11.88
2023-03-06T03:37:44.315Z,12.75
2023-03-06T03:40:15.073Z,12.45
2023-03-06T03:42:44.622Z,14.85
2023-03-06T03:45:14.819Z,13.27
2023-03-06T03:47:44.335Z,12.43
2023-03-06T03:50:15.407Z,13.23
2023-03-06T03:52:46.206Z,12.65
2023-03-06T03:55:16.081Z,13.70
2023-03-06T03:57:46.336Z,9.75
2023-03-06T04:00:17.390Z,9.60
2023-03-06T04:02:49.507Z,10.15
2023-03-06T04:05:19.454Z,10.35
2023-03-06T04:07:50.116Z,8.73
2023-03-06T04:10:20.475Z,6.78
2023-03-06T04:12:51.788Z,12.57
2023-03-06T04:15:21.697Z,11.48
2023-03-06T04:17:51.367Z,10.73
2023-03-06T04:20:21.809Z,12.13
2023-03-06T04:22:53.119Z,13.75
2023-03-06T04:25:23.170Z,10.18
2023-03-06T04:27:53.405Z,11.90
2023-03-06T04:30:23.141Z,10.63
2023-03-06T04:32:53.893Z,11.75
2023-03-06T04:35:23.555Z,9.23
2023-03-06T04:37:54.176Z,11.18
2023-03-06T04:40:34.459Z,11.55
2023-03-06T04:43:06.314Z,10.30
2023-03-06T04:45:36.354Z,11.12
2023-03-06T04:48:06.416Z,11.18
2023-03-06T04:50:36.363Z,11.32
2023-03-06T04:53:06.535Z,13.20
2023-03-06T04:55:35.992Z,12.25
2023-03-06T04:58:05.549Z,10.38
2023-03-06T05:00:35.536Z,11.63
2023-03-06T05:03:05.239Z,9.85
2023-03-06T05:05:35.100Z,14.25
2023-03-06T05:08:04.599Z,11.80
2023-03-06T05:10:34.142Z,10.18
2023-03-06T05:13:04.217Z,9.70
2023-03-06T05:15:33.570Z,10.98
2023-03-06T05:18:03.060Z,9.93
2023-03-06T05:20:32.871Z,8.02
2023-03-06T05:23:02.537Z,11.50
2023-03-06T05:25:32.926Z,5.90
2023-03-06T05:28:02.189Z,5.00
2023-03-06T05:30:33.787Z,4.62
2023-03-06T05:33:03.662Z,3.80
2023-03-06T05:35:33.205Z,3.17
2023-03-06T05:38:02.833Z,5.35
2023-03-06T05:40:32.462Z,5.05
2023-03-06T05:43:01.912Z,3.75
2023-03-06T05:45:31.565Z,4.45
2023-03-06T05:48:01.361Z,3.67
2023-03-06T05:50:30.668Z,3.80
2023-03-06T05:53:00.702Z,3.15
2023-03-06T05:55:30.189Z,2.05
2023-03-06T05:57:59.698Z,2.17
2023-03-06T06:00:30.228Z,2.22
2023-03-06T06:03:02.599Z,2.10
2023-03-06T06:05:32.003Z,4.18
2023-03-06T06:08:03.148Z,4.00
2023-03-06T06:10:32.251Z,2.03
2023-03-06T06:13:01.601Z,4.00
2023-03-06T06:15:31.744Z,3.95
2023-03-06T06:18:02.877Z,2.10
2023-03-06T06:20:32.033Z,1.37
2023-03-06T06:23:01.683Z,3.83
2023-03-06T06:25:32.953Z,2.70
2023-03-06T06:28:04.141Z,2.58
2023-03-06T06:30:34.453Z,2.95
2023-03-06T06:33:05.247Z,4.75
2023-03-06T06:35:37.900Z,1.70
2023-03-06T06:38:07.907Z,2.78
2023-03-06T06:40:37.628Z,3.37
2023-03-06T06:43:07.083Z,2.25
2023-03-06T06:45:38.057Z,2.17
2023-03-06T06:48:07.549Z,2.40
2023-03-06T06:50:37.245Z,4.80
2023-03-06T06:53:06.629Z,1.15
2023-03-06T06:55:36.912Z,2.85
2023-03-06T06:58:06.586Z,1.48
2023-03-06T07:00:35.804Z,2.53
2023-03-06T07:03:11.890Z,1.70
2023-03-06T07:05:41.350Z,3.87
2023-03-06T07:08:11.396Z,5.68
2023-03-06T07:10:40.877Z,3.28
2023-03-06T07:13:11.606Z,4.57
2023-03-06T07:15:41.365Z,1.37
2023-03-06T07:18:11.143Z,1.83
2023-03-06T07:20:41.044Z,2.10
2023-03-06T07:23:14.143Z,1.85
2023-03-06T07:25:43.750Z,2.15
2023-03-06T07:28:14.881Z,2.97
2023-03-06T07:30:45.247Z,2.10
2023-03-06T07:33:15.740Z,1.92
2023-03-06T07:35:45.194Z,1.83
2023-03-06T07:38:15.081Z,1.85
2023-03-06T07:40:44.568Z,3.12
2023-03-06T07:43:19.463Z,1.17
2023-03-06T07:45:57.478Z,2.80
2023-03-06T07:48:28.848Z,1.15
2023-03-06T07:51:01.747Z,1.98
2023-03-06T07:53:31.708Z,2.12
2023-03-06T07:56:02.084Z,2.62
2023-03-06T07:58:31.852Z,1.67
2023-03-06T08:01:05.735Z,2.17
2023-03-06T08:03:36.036Z,5.28
2023-03-06T08:06:08.408Z,2.83
2023-03-06T08:08:42.023Z,2.22
2023-03-06T08:11:14.355Z,2.50
2023-03-06T08:13:44.452Z,1.05
2023-03-06T08:16:14.029Z,1.35
2023-03-06T08:18:46.246Z,4.72
2023-03-06T08:21:18.405Z,1.20
2023-03-06T08:23:49.504Z,2.53
2023-03-06T08:26:21.840Z,1.25
2023-03-06T08:28:53.211Z,1.80
2023-03-06T08:31:36.910Z,1.67
2023-03-06T08:34:10.038Z,1.73
2023-03-06T08:36:39.457Z,6.00
2023-03-06T08:39:09.815Z,2.03
2023-03-06T08:41:39.863Z,3.03
2023-03-06T08:44:10.190Z,2.87
2023-03-06T08:46:39.657Z,2.53
2023-03-06T08:49:13.411Z,2.17
2023-03-06T08:54:14.383Z,2.83
2023-03-06T08:56:43.903Z,1.48
2023-03-06T08:59:14.559Z,2.50
2023-03-06T09:01:45.947Z,3.05
2023-03-06T09:04:16.342Z,3.08
2023-03-06T09:06:45.890Z,1.67
2023-03-06T09:09:17.390Z,3.83
2023-03-06T09:11:46.662Z,2.22
2023-03-06T09:14:16.872Z,16.75
2023-03-06T09:16:47.383Z,1.50
2023-03-06T09:19:17.215Z,1.92
2023-03-06T09:21:46.514Z,1.67
2023-03-06T09:24:15.856Z,2.62
2023-03-06T09:26:47.162Z,4.20
2023-03-06T09:29:18.287Z,1.07
2023-03-06T09:31:48.286Z,1.87
2023-03-06T09:34:17.586Z,2.10
2023-03-06T09:36:56.519Z,0.90
2023-03-06T09:39:27.936Z,2.78
2023-03-06T09:41:59.348Z,1.42
2023-03-06T09:44:33.374Z,2.23
2023-03-06T09:47:20.081Z,1.70
2023-03-06T09:50:01.817Z,1.37
2023-03-06T09:52:54.904Z,2.95
2023-03-06T09:55:29.999Z,1.42
2023-03-06T09:58:17.441Z,1.15
2023-03-06T10:01:03.490Z,1.70
2023-03-06T10:03:40.578Z,3.85
2023-03-06T10:06:32.118Z,0.62
2023-03-06T10:09:13.465Z,2.60
2023-03-06T10:11:48.048Z,1.42
2023-03-06T10:14:21.552Z,0.80
2023-03-06T10:16:51.541Z,0.75
2023-03-06T10:19:23.040Z,1.20
2023-03-06T10:22:31.663Z,2.17
2023-03-06T10:25:28.573Z,0.62
2023-03-06T10:28:19.970Z,1.40
2023-03-06T10:30:53.932Z,1.25
2023-03-06T10:33:47.691Z,0.82
2023-03-06T10:36:19.537Z,2.10
2023-03-06T10:38:49.832Z,1.02
2023-03-06T10:41:37.412Z,0.90
2023-03-06T10:44:26.501Z,0.80
2023-03-06T10:46:56.955Z,1.42
2023-03-06T10:49:30.842Z,2.45
2023-03-06T10:52:06.158Z,0.95
2023-03-06T10:54:41.443Z,1.10
2023-03-06T10:57:31.967Z,2.08
2023-03-06T11:00:24.044Z,2.90
2023-03-06T11:03:24.215Z,2.70
2023-03-06T11:06:02.392Z,3.78
2023-03-06T11:08:33.008Z,2.78
2023-03-06T11:11:05.917Z,3.65
2023-03-06T11:13:39.080Z,1.83
2023-03-06T11:16:31.383Z,0.93
2023-03-06T11:19:07.717Z,1.25
2023-03-06T11:21:40.768Z,1.67
2023-03-06T11:24:20.265Z,1.85
2023-03-06T11:27:31.293Z,1.50
2023-03-06T11:30:03.717Z,0.98
2023-03-06T11:32:45.857Z,2.03
2023-03-06T11:35:23.552Z,1.65
2023-03-06T11:38:05.716Z,3.03
2023-03-06T11:40:46.782Z,0.60
2023-03-06T11:43:42.166Z,1.73
2023-03-06T11:46:29.914Z,1.12
2023-03-06T11:49:26.138Z,1.20
2023-03-06T11:51:58.789Z,2.92
2023-03-06T11:54:28.487Z,1.95
2023-03-06T11:57:05.743Z,1.37
2023-03-06T11:59:56.099Z,1.30
2023-03-06T12:02:26.589Z,2.65
2023-03-06T12:05:27.259Z,1.42
2023-03-06T12:08:27.993Z,2.83
2023-03-06T12:11:14.468Z,1.45
2023-03-06T12:14:13.241Z,1.90
2023-03-06T12:16:53.770Z,1.65
2023-03-06T12:20:02.993Z,1.85
2023-03-06T12:22:53.309Z,2.05
2023-03-06T12:25:35.334Z,1.20
2023-03-06T12:28:25.402Z,6.45
2023-03-06T12:31:33.748Z,3.67
2023-03-06T12:34:19.903Z,1.80
2023-03-06T12:37:14.991Z,1.10
2023-03-06T12:39:57.294Z,2.37
2023-03-06T12:42:52.734Z,3.47
2023-03-06T12:45:24.489Z,1.35
2023-03-06T12:47:57.549Z,1.10
2023-03-06T12:50:30.118Z,1.25
2023-03-06T12:53:04.047Z,4.25
2023-03-06T12:55:42.492Z,0.82
2023-03-06T12:58:32.137Z,2.72
2023-03-06T13:01:41.314Z,4.62
2023-03-06T13:04:37.533Z,1.35
2023-03-06T13:07:47.591Z,0.80
2023-03-06T13:10:35.199Z,0.90
2023-03-06T13:13:34.260Z,1.40
2023-03-06T13:16:25.529Z,2.47
2023-03-06T13:19:05.824Z,1.55
2023-03-06T13:21:44.114Z,2.78
2023-03-06T13:24:28.415Z,1.12
2023-03-06T13:27:07.827Z,1.20
2023-03-06T13:29:39.942Z,1.10
2023-03-06T13:32:19.609Z,0.62
2023-03-06T13:34:52.786Z,1.58
2023-03-06T13:37:52.015Z,2.60
2023-03-06T13:40:34.931Z,0.70
2023-03-06T13:43:19.000Z,1.70
2023-03-06T13:45:50.901Z,3.08
2023-03-06T13:48:44.119Z,1.05
2023-03-06T13:51:25.546Z,1.23
2023-03-06T13:54:37.256Z,2.90
2023-03-06T13:57:28.452Z,3.83
2023-03-06T14:00:08.702Z,0.60
2023-03-06T14:03:10.823Z,1.30
2023-03-06T14:05:45.768Z,2.15
2023-03-06T14:08:21.774Z,1.25
2023-03-06T14:11:06.358Z,0.90
2023-03-06T14:13:47.858Z,1.45
2023-03-06T14:16:49.973Z,1.08
2023-03-06T14:19:21.150Z,7.65
2023-03-06T14:21:57.324Z,2.15
2023-03-06T14:24:42.231Z,6.72
2023-03-06T14:27:19.695Z,2.78
2023-03-06T14:29:50.631Z,2.03
2023-03-06T14:32:23.870Z,1.17
2023-03-06T14:34:54.256Z,3.72
2023-03-06T14:37:25.702Z,0.80
2023-03-06T14:39:57.046Z,2.72
2023-03-06T14:42:29.014Z,2.37
2023-03-06T14:45:18.878Z,1.62
2023-03-06T14:47:54.561Z,1.33
2023-03-06T14:50:29.028Z,3.30
2023-03-06T14:53:14.604Z,1.65
2023-03-06T14:56:03.116Z,1.23
2023-03-06T14:58:55.088Z,1.20
2023-03-06T15:01:33.989Z,2.58
2023-03-06T15:04:08.188Z,1.67
2023-03-06T15:06:43.348Z,3.78
2023-03-06T15:09:21.269Z,4.03
2023-03-06T15:12:28.033Z,4.00
2023-03-06T15:15:04.363Z,3.12
2023-03-06T15:17:44.223Z,4.35
2023-03-06T15:20:43.560Z,2.50
2023-03-06T15:23:41.707Z,2.85
2023-03-06T15:26:31.908Z,2.85
2023-03-06T15:29:09.419Z,4.43
2023-03-06T15:31:41.842Z,4.80
2023-03-06T15:34:12.508Z,2.70
2023-03-06T15:36:52.064Z,2.30
2023-03-06T15:39:33.453Z,3.40
2023-03-06T15:42:25.623Z,4.55
2023-03-06T15:45:14.276Z,6.32
2023-03-06T15:47:46.251Z,3.37
2023-03-06T15:50:20.054Z,2.42
2023-03-06T15:52:52.062Z,3.83
2023-03-06T15:55:26.781Z,5.18
2023-03-06T15:58:00.585Z,7.55
2023-03-06T16:00:35.157Z,9.18
2023-03-06T16:03:05.470Z,10.32
2023-03-06T16:05:34.856Z,6.15
2023-03-06T16:08:05.894Z,3.40
2023-03-06T16:10:38.430Z,4.30
2023-03-06T16:13:14.308Z,2.85
2023-03-06T16:15:49.785Z,8.57
2023-03-06T16:18:20.424Z,7.30
2023-03-06T16:20:51.576Z,5.90
2023-03-06T16:23:22.017Z,4.25
2023-03-06T16:25:51.339Z,2.35
2023-03-06T16:28:20.474Z,2.55
2023-03-06T16:30:50.647Z,3.20
2023-03-06T16:33:20.340Z,1.83
2023-03-06T16:36:01.260Z,6.78
2023-03-06T16:38:30.687Z,5.68
2023-03-06T16:41:00.719Z,5.25
2023-03-06T16:43:30.065Z,3.12
2023-03-06T16:45:59.573Z,2.67
2023-03-06T16:48:30.745Z,4.62
2023-03-06T16:51:00.443Z,5.55
2023-03-06T16:53:30.045Z,5.12
2023-03-06T16:55:59.639Z,5.05
2023-03-06T16:58:29.753Z,5.37
2023-03-06T17:01:01.299Z,7.00
2023-03-06T17:03:30.669Z,5.32
2023-03-06T17:06:01.336Z,5.72
2023-03-06T17:08:31.278Z,7.28
2023-03-06T17:11:06.134Z,8.23
2023-03-06T17:13:35.708Z,5.68
2023-03-06T17:16:07.136Z,7.25
2023-03-06T17:18:37.418Z,8.35
2023-03-06T17:21:09.463Z,5.70
2023-03-06T17:23:39.765Z,4.37
2023-03-06T17:26:19.640Z,5.82
2023-03-06T17:28:49.184Z,7.90
2023-03-06T17:31:23.826Z,8.43
2023-03-06T17:33:57.386Z,9.95
2023-03-06T17:36:28.732Z,9.80
2023-03-06T17:39:00.345Z,9.35
2023-03-06T17:41:30.908Z,14.98
2023-03-06T17:44:00.429Z,8.57
2023-03-06T17:46:32.724Z,7.62
2023-03-06T17:49:02.303Z,7.82
2023-03-06T17:51:32.041Z,6.20
2023-03-06T17:54:01.598Z,9.48
2023-03-06T17:56:31.016Z,6.90
2023-03-06T17:59:01.100Z,10.40
2023-03-06T18:01:31.477Z,9.73
2023-03-06T18:04:03.046Z,9.07
2023-03-06T18:06:34.078Z,7.85
2023-03-06T18:09:04.831Z,5.95
2023-03-06T18:11:34.564Z,6.97
2023-03-06T18:14:05.618Z,12.30
2023-03-06T18:16:35.080Z,25.52
2023-03-06T18:19:14.898Z,16.60
2023-03-06T18:21:44.000Z,13.25
2023-03-06T18:24:25.743Z,13.75
2023-03-06T18:27:04.417Z,16.55
2023-03-06T18:29:34.613Z,9.65
2023-03-06T18:32:05.201Z,9.07
2023-03-06T18:34:35.158Z,12.80
2023-03-06T18:37:04.482Z,11.43
2023-03-06T18:39:34.038Z,13.43
2023-03-06T18:42:05.003Z,16.30
2023-03-06T18:44:34.554Z,20.20
2023-03-06T18:47:07.492Z,6.28
2023-03-06T18:49:43.128Z,5.28
2023-03-06T18:52:17.081Z,6.25
2023-03-06T18:54:49.349Z,4.10
2023-03-06T18:59:49.073Z,22.50
2023-03-06T19:04:52.906Z,6.93
2023-03-06T19:07:22.907Z,3.42
2023-03-06T19:09:52.123Z,5.20
2023-03-06T19:12:22.212Z,3.37
2023-03-06T19:14:52.496Z,5.72
2023-03-06T19:17:23.977Z,3.03
2023-03-06T19:19:58.621Z,4.97
2023-03-06T19:22:28.689Z,3.75
2023-03-06T19:25:03.638Z,3.25
2023-03-06T19:27:33.438Z,6.15
2023-03-06T19:30:05.543Z,6.62
2023-03-06T19:32:35.410Z,6.03
2023-03-06T19:35:06.450Z,4.12
2023-03-06T19:37:37.155Z,7.75
2023-03-06T19:40:08.784Z,6.80
2023-03-06T19:42:40.843Z,8.70
2023-03-06T19:45:11.824Z,9.77
2023-03-06T19:47:41.256Z,4.57
2023-03-06T19:50:13.832Z,8.57
2023-03-06T19:52:43.773Z,10.93
2023-03-06T19:55:14.262Z,7.45
2023-03-06T19:57:44.227Z,6.03
2023-03-06T20:00:15.077Z,4.10
2023-03-06T20:02:44.764Z,5.30
2023-03-06T20:05:14.080Z,3.72
2023-03-06T20:07:43.758Z,6.07
2023-03-06T20:10:14.669Z,4.43
2023-03-06T20:12:43.935Z,4.87
2023-03-06T20:15:14.018Z,3.10
2023-03-06T20:17:43.271Z,9.27
2023-03-06T20:20:14.656Z,28.67
2023-03-06T20:22:44.021Z,24.87
2023-03-06T20:25:14.191Z,13.00
2023-03-06T20:27:44.924Z,11.10
2023-03-06T20:30:15.217Z,6.37
2023-03-06T20:32:44.751Z,5.72
2023-03-06T20:35:14.896Z,7.47
2023-03-06T20:37:44.145Z,7.43
2023-03-06T20:40:14.233Z,11.65
2023-03-06T20:42:47.127Z,8.20
2023-03-06T20:45:16.372Z,8.20
2023-03-06T20:47:48.012Z,15.20
2023-03-06T20:50:23.362Z,10.60
2023-03-06T20:52:56.470Z,5.68
2023-03-06T20:55:26.156Z,8.63
2023-03-06T20:57:55.986Z,9.35
2023-03-06T21:00:26.363Z,5.03
2023-03-06T21:02:59.631Z,5.68
2023-03-06T21:05:29.148Z,5.30
2023-03-06T21:07:59.010Z,5.60
2023-03-06T21:10:28.235Z,10.55
2023-03-06T21:12:57.759Z,7.65
2023-03-06T21:15:30.741Z,12.82
2023-03-06T21:20:30.726Z,8.00
2023-03-06T21:23:02.536Z,10.27
2023-03-06T21:25:33.581Z,10.40
2023-03-06T21:28:06.557Z,17.83
2023-03-06T21:30:36.486Z,10.50
2023-03-06T21:33:05.731Z,21.27
2023-03-06T21:35:40.637Z,14.55
2023-03-06T21:38:10.159Z,21.92
2023-03-06T21:40:40.421Z,12.18
2023-03-06T21:43:09.865Z,18.02
2023-03-06T21:45:43.852Z,9.43
2023-03-06T21:48:13.567Z,13.85
2023-03-06T21:50:44.045Z,7.75
2023-03-06T21:53:13.403Z,6.75
2023-03-06T21:55:49.266Z,7.72
2023-03-06T21:58:18.966Z,9.75
2023-03-06T22:00:48.226Z,10.75
2023-03-06T22:03:17.888Z,10.35
2023-03-06T22:05:47.459Z,9.60
2023-03-06T22:08:16.561Z,5.97
2023-03-06T22:10:48.526Z,7.00
2023-03-06T22:13:17.812Z,8.27
2023-03-06T22:15:52.661Z,8.40
2023-03-06T22:18:22.657Z,5.97
2023-03-06T22:20:52.812Z,8.02
2023-03-06T22:23:22.088Z,8.30
2023-03-06T22:25:51.518Z,13.55
2023-03-06T22:28:21.963Z,10.43
2023-03-06T22:30:51.225Z,6.65
2023-03-06T22:33:20.854Z,12.23
2023-03-06T22:35:50.328Z,7.22
2023-03-06T22:38:19.746Z,10.30
2023-03-06T22:40:49.622Z,8.25
2023-03-06T22:43:20.832Z,9.02
2023-03-06T22:45:53.376Z,11.45
2023-03-06T22:48:23.678Z,6.35
2023-03-06T22:50:54.470Z,7.62
2023-03-06T22:53:23.814Z,5.65
2023-03-06T22:55:54.081Z,5.03
2023-03-06T22:58:23.457Z,6.30
2023-03-06T23:00:53.052Z,5.55
2023-03-06T23:03:23.106Z,5.87
2023-03-06T23:05:52.587Z,5.53
2023-03-06T23:08:22.364Z,7.07
2023-03-06T23:11:11.601Z,4.70
2023-03-06T23:13:56.260Z,4.90
2023-03-06T23:16:41.205Z,4.10
2023-03-06T23:19:25.459Z,7.90
2023-03-06T23:22:09.809Z,4.68
2023-03-06T23:24:53.821Z,2.90
2023-03-06T23:27:24.138Z,5.07
2023-03-06T23:29:58.091Z,4.55
2023-03-06T23:32:27.825Z,4.32
2023-03-06T23:34:57.038Z,3.92
2023-03-06T23:37:26.552Z,4.68
2023-03-06T23:39:56.900Z,4.40
2023-03-06T23:42:26.434Z,5.35
2023-03-06T23:44:56.416Z,3.75
2023-03-06T23:47:25.789Z,3.80
2023-03-06T23:49:55.917Z,3.62
2023-03-06T23:52:25.632Z,5.90
2023-03-06T23:54:55.344Z,3.90
2023-03-06T23:57:26.764Z,4.15
2023-03-06T23:59:56.197Z,4.72
